Time;durP1;ratioP1;P1;durP2;ratioP2;P2;SDS_P1;SDS_P2;PMS_P1;PMS_P2;Temp;Humidity;BMP_temperature;BMP_pressure;BME280_temperature;BME280_humidity;BME280_pressure;Samples;Min_cycle;Max_cycle;Signal;HPM_P1;HPM_P2
2022/03/06 00:02:14;;;;;;;10.15;5.32;;;3.40;74.10;;;;;;6264276;22;20015;-67
2022/03/06 00:04:40;;;;;;;7.63;4.95;;;3.30;73.50;;;;;;6264751;22;20004;-67
2022/03/06 00:07:06;;;;;;;6.68;4.30;;;3.30;73.60;;;;;;6265394;22;20029;-68
2022/03/06 00:09:31;;;;;;;6.72;4.55;;;3.30;73.30;;;;;;6263240;22;20080;-68
2022/03/06 00:11:57;;;;;;;8.55;5.20;;;3.20;74.30;;;;;;6262897;22;20023;-68
2022/03/06 00:14:23;;;;;;;8.48;5.07;;;3.10;76.90;;;;;;6262136;22;20069;-68
2022/03/06 00:16:51;;;;;;;6.03;5.07;;;2.90;77.50;;;;;;6264475;22;20331;-68
2022/03/06 00:19:18;;;;;;;7.80;5.05;;;2.80;76.30;;;;;;6263767;22;20011;-68
2022/03/06 00:21:43;;;;;;;6.55;4.53;;;2.80;75.90;;;;;;6263710;22;20011;-68
2022/03/06 00:24:09;;;;;;;7.07;5.25;;;2.80;74.90;;;;;;6262378;22;20448;-68
2022/03/06 00:26:35;;;;;;;7.38;5.32;;;2.80;75.00;;;;;;6263044;22;20189;-68
2022/03/06 00:29:01;;;;;;;8.82;5.75;;;2.80;76.60;;;;;;6261750;22;20011;-68
2022/03/06 00:31:26;;;;;;;8.88;5.43;;;2.70;77.50;;;;;;6262524;22;20353;-68
2022/03/06 00:33:53;;;;;;;8.98;5.43;;;2.60;76.50;;;;;;6261417;22;20506;-68
2022/03/06 00:36:19;;;;;;;6.70;4.82;;;2.60;75.50;;;;;;6263836;22;20016;-68
2022/03/06 00:38:45;;;;;;;8.43;5.72;;;2.60;75.90;;;;;;6261513;22;20012;-68
2022/03/06 00:41:12;;;;;;;8.38;5.85;;;2.60;75.80;;;;;;6262915;22;20003;-68
2022/03/06 00:43:37;;;;;;;7.70;5.75;;;2.50;76.40;;;;;;6263111;22;20012;-68
2022/03/06 00:46:03;;;;;;;7.65;5.57;;;2.50;77.40;;;;;;6262404;22;20012;-68
2022/03/06 00:48:29;;;;;;;8.23;5.18;;;2.50;78.60;;;;;;6262834;22;20008;-68
2022/03/06 00:50:55;;;;;;;8.32;5.75;;;2.40;79.50;;;;;;6263604;22;20011;-68
2022/03/06 00:53:20;;;;;;;8.80;5.72;;;2.30;80.10;;;;;;6263792;22;20121;-68
2022/03/06 00:55:46;;;;;;;13.15;6.00;;;2.30;79.10;;;;;;6262477;22;20038;-68
2022/03/06 00:58:12;;;;;;;8.18;6.05;;;2.20;79.00;;;;;;6262464;22;20014;-68
2022/03/06 01:00:41;;;;;;;8.48;5.55;;;2.20;78.90;;;;;;6261403;22;20405;-68
2022/03/06 01:03:08;;;;;;;7.65;5.95;;;2.20;78.80;;;;;;6263195;22;20082;-68
2022/03/06 01:05:34;;;;;;;9.20;6.28;;;2.20;79.30;;;;;;6261082;22;20091;-68
2022/03/06 01:08:01;;;;;;;8.15;5.75;;;2.20;79.10;;;;;;6262874;22;20218;-68
2022/03/06 01:10:27;;;;;;;8.75;6.20;;;2.10;78.70;;;;;;6261553;22;20015;-68
2022/03/06 01:12:53;;;;;;;8.55;6.35;;;2.10;78.60;;;;;;6261993;22;20054;-68
2022/03/06 01:15:19;;;;;;;11.48;6.75;;;2.10;78.70;;;;;;6259360;22;20007;-68
2022/03/06 01:17:44;;;;;;;15.82;8.93;;;2.00;78.80;;;;;;6263858;22;20432;-68
2022/03/06 01:20:11;;;;;;;15.50;8.75;;;2.00;78.60;;;;;;6264287;22;20007;-68
2022/03/06 01:22:36;;;;;;;15.25;8.60;;;2.00;78.80;;;;;;6264426;22;20073;-68
2022/03/06 01:25:03;;;;;;;12.30;8.13;;;2.00;78.20;;;;;;6263335;22;20008;-68
2022/03/06 01:27:29;;;;;;;13.88;9.30;;;1.90;79.30;;;;;;6264562;22;20186;-68
2022/03/06 01:29:54;;;;;;;11.93;8.35;;;1.90;79.10;;;;;;6264063;22;20121;-68
2022/03/06 01:32:20;;;;;;;12.57;8.13;;;1.90;79.20;;;;;;6264223;22;20007;-68
2022/03/06 01:34:46;;;;;;;12.90;8.55;;;1.80;79.30;;;;;;6263588;22;20003;-68
2022/03/06 01:37:11;;;;;;;13.90;9.27;;;1.80;80.20;;;;;;6265892;22;20034;-69
2022/03/06 01:39:37;;;;;;;14.63;8.98;;;1.70;80.60;;;;;;6235780;22;20031;-69
2022/03/06 01:42:03;;;;;;;12.80;7.85;;;1.60;81.80;;;;;;6264219;22;20008;-68
2022/03/06 01:44:29;;;;;;;9.75;6.88;;;1.60;82.90;;;;;;6261228;22;20417;-68
2022/03/06 01:46:54;;;;;;;8.23;5.82;;;1.50;84.00;;;;;;6263463;22;20010;-68
2022/03/06 01:49:20;;;;;;;9.73;6.80;;;1.40;84.30;;;;;;6264093;22;20079;-68
2022/03/06 01:51:46;;;;;;;10.13;6.50;;;1.30;84.90;;;;;;6262891;22;19999;-68
2022/03/06 01:54:13;;;;;;;10.55;6.90;;;1.20;85.10;;;;;;6261947;22;20113;-69
2022/03/06 01:56:40;;;;;;;10.90;6.70;;;1.20;86.20;;;;;;6263546;22;20012;-69
2022/03/06 01:59:06;;;;;;;9.77;6.63;;;1.20;85.80;;;;;;6262222;22;20003;-68
2022/03/06 02:01:32;;;;;;;8.90;6.50;;;1.10;86.20;;;;;;6262167;22;20034;-68
2022/03/06 02:03:57;;;;;;;11.13;6.70;;;1.10;86.00;;;;;;6261116;22;20000;-68
2022/03/06 02:06:24;;;;;;;8.20;6.22;;;1.00;85.50;;;;;;6264605;22;20015;-68
2022/03/06 02:08:50;;;;;;;9.02;6.95;;;1.10;84.50;;;;;;6236899;22;20019;-68
2022/03/06 02:11:16;;;;;;;9.95;6.53;;;1.10;83.60;;;;;;6263915;22;20003;-68
2022/03/06 02:13:43;;;;;;;10.10;6.63;;;1.10;84.10;;;;;;6263664;22;20023;-68
2022/03/06 02:16:10;;;;;;;9.38;6.47;;;1.10;83.30;;;;;;6262614;22;20383;-68
2022/03/06 02:18:36;;;;;;;9.00;6.03;;;1.10;84.00;;;;;;6261140;22;20257;-69
2022/03/06 02:21:13;;;;;;;8.55;6.75;;;1.10;84.40;;;;;;6263850;22;20018;-69
2022/03/06 02:23:39;;;;;;;9.10;6.55;;;1.10;84.00;;;;;;6263397;22;20004;-69
2022/03/06 02:26:07;;;;;;;8.00;5.97;;;1.00;84.30;;;;;;6263213;22;20099;-68
2022/03/06 02:28:34;;;;;;;11.40;7.10;;;1.10;83.90;;;;;;6235182;22;20504;-68
2022/03/06 02:31:01;;;;;;;10.63;6.72;;;1.10;83.20;;;;;;6262769;22;20804;-69
2022/03/06 02:33:26;;;;;;;10.30;7.63;;;1.10;83.20;;;;;;6262578;22;20478;-69
2022/03/06 02:35:53;;;;;;;10.52;7.28;;;1.10;82.80;;;;;;6263111;22;20041;-69
2022/03/06 02:38:19;;;;;;;11.05;7.35;;;1.00;82.90;;;;;;6261979;22;20189;-69
2022/03/06 02:40:45;;;;;;;10.45;7.10;;;1.00;82.70;;;;;;6261621;22;20438;-69
2022/03/06 02:43:13;;;;;;;9.60;7.35;;;1.00;82.30;;;;;;6263433;22;20003;-69
2022/03/06 02:45:40;;;;;;;8.85;6.82;;;1.10;82.50;;;;;;6263152;22;20057;-68
2022/03/06 02:48:07;;;;;;;9.98;7.22;;;1.10;82.00;;;;;;6262639;22;20364;-68
2022/03/06 02:50:37;;;;;;;9.10;6.68;;;1.00;82.20;;;;;;6263094;22;20070;-68
2022/03/06 02:53:06;;;;;;;9.38;7.05;;;1.00;81.60;;;;;;6264681;22;20108;-69
2022/03/06 02:55:32;;;;;;;11.13;7.07;;;1.10;81.30;;;;;;6262120;22;20014;-69
2022/03/06 02:57:57;;;;;;;9.70;7.05;;;1.10;81.30;;;;;;6263932;22;20008;-68
2022/03/06 03:00:25;;;;;;;10.13;6.93;;;1.20;81.10;;;;;;6262576;22;20030;-68
2022/03/06 03:02:51;;;;;;;11.45;7.28;;;1.10;80.90;;;;;;6264987;22;20016;-68
2022/03/06 03:05:18;;;;;;;9.82;7.35;;;1.10;80.90;;;;;;6266219;22;20014;-68
2022/03/06 03:07:48;;;;;;;11.27;7.88;;;1.10;81.10;;;;;;6264584;22;20624;-69
2022/03/06 03:10:22;;;;;;;10.27;7.47;;;1.00;81.50;;;;;;6265562;22;20757;-69
2022/03/06 03:12:48;;;;;;;11.38;7.47;;;1.00;81.40;;;;;;6265872;22;20019;-69
2022/03/06 03:15:14;;;;;;;9.80;7.20;;;1.00;81.20;;;;;;6265280;22;20007;-69
2022/03/06 03:17:40;;;;;;;11.45;7.95;;;1.00;81.20;;;;;;6265624;22;20468;-69
2022/03/06 03:20:08;;;;;;;13.18;8.20;;;1.00;80.90;;;;;;6262559;22;20011;-69
2022/03/06 03:22:34;;;;;;;10.27;7.10;;;1.10;81.10;;;;;;6266000;22;20007;-69
2022/03/06 03:24:59;;;;;;;12.05;8.10;;;1.00;80.90;;;;;;6264156;22;20008;-69
2022/03/06 03:27:25;;;;;;;12.13;8.45;;;1.00;81.10;;;;;;6265035;22;20019;-68
2022/03/06 03:29:50;;;;;;;13.10;8.57;;;0.90;81.10;;;;;;6264874;22;20008;-69
2022/03/06 03:32:16;;;;;;;11.88;8.00;;;1.00;80.90;;;;;;6265248;22;20014;-69
2022/03/06 03:34:42;;;;;;;12.27;8.52;;;1.00;81.10;;;;;;6264767;22;20026;-69
2022/03/06 03:37:07;;;;;;;9.95;7.38;;;0.90;81.60;;;;;;6266392;22;20019;-69
2022/03/06 03:39:33;;;;;;;11.85;7.93;;;0.90;81.40;;;;;;6264188;22;20357;-69
2022/03/06 03:41:59;;;;;;;9.90;6.90;;;0.80;81.20;;;;;;6265840;22;20098;-69
2022/03/06 03:44:24;;;;;;;10.25;7.10;;;0.80;81.60;;;;;;6264656;22;20011;-68
2022/03/06 03:46:50;;;;;;;11.73;7.53;;;0.80;82.20;;;;;;6264398;22;20065;-69
2022/03/06 03:49:15;;;;;;;9.57;7.05;;;0.80;83.00;;;;;;6265510;22;20004;-69
2022/03/06 03:51:42;;;;;;;10.55;7.30;;;0.70;84.20;;;;;;6264478;22;20037;-68
2022/03/06 03:54:08;;;;;;;9.93;6.72;;;0.50;85.30;;;;;;6265891;22;20016;-69
2022/03/06 03:56:34;;;;;;;10.23;7.25;;;0.50;84.90;;;;;;6264865;22;20012;-69
2022/03/06 03:58:59;;;;;;;9.02;6.72;;;0.40;85.90;;;;;;6265852;22;20010;-68
2022/03/06 04:01:25;;;;;;;11.45;7.30;;;0.40;86.40;;;;;;6263494;22;20023;-68
2022/03/06 04:03:51;;;;;;;10.77;6.93;;;0.40;85.60;;;;;;6263898;22;20000;-68
2022/03/06 04:06:17;;;;;;;9.75;6.90;;;0.30;85.90;;;;;;6265297;22;20008;-68
2022/03/06 04:08:43;;;;;;;9.38;6.82;;;0.20;85.30;;;;;;6265155;22;20008;-69
2022/03/06 04:11:09;;;;;;;9.43;6.07;;;0.20;84.60;;;;;;6265205;22;20014;-69
2022/03/06 04:13:35;;;;;;;10.38;6.43;;;0.20;84.60;;;;;;6235694;22;20031;-69
2022/03/06 04:16:01;;;;;;;15.10;8.25;;;0.20;84.20;;;;;;6265037;22;19999;-68
2022/03/06 04:18:26;;;;;;;11.25;7.00;;;0.20;84.60;;;;;;6264033;22;20011;-69
2022/03/06 04:20:52;;;;;;;11.95;7.38;;;0.20;86.30;;;;;;6238346;22;20015;-68
2022/03/06 04:23:17;;;;;;;10.20;7.13;;;0.10;86.60;;;;;;6264841;22;20079;-68
2022/03/06 04:25:43;;;;;;;10.32;7.05;;;0.10;86.20;;;;;;6264418;22;20093;-68
2022/03/06 04:28:09;;;;;;;10.57;7.35;;;0.10;85.40;;;;;;6264237;22;20012;-68
2022/03/06 04:30:35;;;;;;;9.38;7.20;;;0.20;84.90;;;;;;6263883;22;20062;-67
2022/03/06 04:33:01;;;;;;;9.55;7.20;;;0.30;84.90;;;;;;6264459;22;20359;-67
2022/03/06 04:35:27;;;;;;;11.23;7.25;;;0.40;84.90;;;;;;6265061;22;20062;-68
2022/03/06 04:37:53;;;;;;;11.48;7.40;;;0.40;84.10;;;;;;6263680;22;20438;-67
2022/03/06 04:40:19;;;;;;;10.45;7.18;;;0.40;84.10;;;;;;6265084;22;20013;-68
2022/03/06 04:42:44;;;;;;;10.27;7.50;;;0.50;84.30;;;;;;6265386;22;20087;-68
2022/03/06 04:45:10;;;;;;;12.85;7.38;;;0.50;84.10;;;;;;6264282;22;20078;-68
2022/03/06 04:47:36;;;;;;;9.80;7.15;;;0.60;83.90;;;;;;6264736;22;20015;-68
2022/03/06 04:50:02;;;;;;;10.65;7.25;;;0.70;84.20;;;;;;6263714;22;20012;-68
2022/03/06 04:52:28;;;;;;;14.57;7.35;;;0.80;84.50;;;;;;6264243;22;20016;-68
2022/03/06 04:54:54;;;;;;;21.05;14.27;;;0.80;84.40;;;;;;6264084;22;20034;-67
2022/03/06 04:57:20;;;;;;;18.00;11.75;;;0.80;85.30;;;;;;6264384;22;20023;-67
2022/03/06 04:59:45;;;;;;;18.92;13.35;;;0.80;86.30;;;;;;6263761;22;20018;-67
2022/03/06 05:02:11;;;;;;;18.27;13.02;;;0.80;86.40;;;;;;6263487;22;20019;-68
2022/03/06 05:04:37;;;;;;;15.43;11.48;;;0.70;86.10;;;;;;6264886;22;20012;-68
2022/03/06 05:07:02;;;;;;;12.75;8.32;;;0.70;87.60;;;;;;6265439;22;20028;-68
2022/03/06 05:09:28;;;;;;;11.95;8.38;;;0.80;85.20;;;;;;6235970;22;20000;-68
2022/03/06 05:11:54;;;;;;;12.38;8.20;;;0.80;85.40;;;;;;6264481;22;20046;-68
2022/03/06 05:14:19;;;;;;;15.45;9.88;;;0.90;86.80;;;;;;6264464;22;20046;-68
2022/03/06 05:16:45;;;;;;;20.42;11.30;;;0.90;86.50;;;;;;6264112;22;20011;-68
2022/03/06 05:19:10;;;;;;;19.73;11.43;;;1.00;85.80;;;;;;6263685;22;20008;-68
2022/03/06 05:21:36;;;;;;;20.10;13.02;;;1.00;86.40;;;;;;6265330;22;20138;-68
2022/03/06 05:24:03;;;;;;;19.08;12.73;;;1.00;85.90;;;;;;6264239;22;20003;-68
2022/03/06 05:26:29;;;;;;;16.15;10.57;;;1.00;86.90;;;;;;6263134;22;20015;-68
2022/03/06 05:28:54;;;;;;;15.48;9.15;;;1.00;85.80;;;;;;6263384;22;20039;-68
2022/03/06 05:31:20;;;;;;;15.05;9.20;;;1.10;85.70;;;;;;6263636;22;20007;-68
2022/03/06 05:33:46;;;;;;;12.73;8.25;;;1.10;86.30;;;;;;6264535;22;20142;-68
2022/03/06 05:36:11;;;;;;;10.38;6.85;;;1.20;85.70;;;;;;6262708;22;20517;-68
2022/03/06 05:38:37;;;;;;;9.38;6.30;;;1.20;86.20;;;;;;6264009;22;20328;-68
2022/03/06 05:41:03;;;;;;;8.80;6.28;;;1.20;84.70;;;;;;6264006;22;20035;-68
2022/03/06 05:43:29;;;;;;;11.23;6.55;;;1.20;84.20;;;;;;6264325;22;20007;-68
2022/03/06 05:45:55;;;;;;;11.30;7.20;;;1.20;85.50;;;;;;6262386;22;20004;-68
2022/03/06 05:48:21;;;;;;;9.25;6.05;;;1.30;85.10;;;;;;6263745;22;20109;-69
2022/03/06 05:50:47;;;;;;;7.95;6.00;;;1.40;85.00;;;;;;6263799;22;20003;-68
2022/03/06 05:53:13;;;;;;;9.32;5.82;;;1.40;84.80;;;;;;6264121;22;20011;-68
2022/03/06 05:55:38;;;;;;;9.13;5.65;;;1.50;83.90;;;;;;6262822;22;20523;-69
2022/03/06 05:58:04;;;;;;;10.25;7.10;;;1.50;83.90;;;;;;6265260;22;20118;-68
2022/03/06 06:00:30;;;;;;;9.80;5.95;;;1.60;83.20;;;;;;6263281;22;20661;-68
2022/03/06 06:02:56;;;;;;;8.90;5.72;;;1.70;83.60;;;;;;6263881;22;20004;-67
2022/03/06 06:05:22;;;;;;;9.90;6.30;;;1.80;83.80;;;;;;6263342;22;20083;-67
2022/03/06 06:07:49;;;;;;;8.43;5.40;;;1.80;83.10;;;;;;6263298;22;20015;-67
2022/03/06 06:10:15;;;;;;;8.57;6.20;;;1.90;82.40;;;;;;6264001;22;20000;-69
2022/03/06 06:12:41;;;;;;;8.55;5.13;;;2.00;83.70;;;;;;6263147;22;20500;-68
2022/03/06 06:15:08;;;;;;;16.27;5.35;;;2.20;81.10;;;;;;6262534;22;20496;-68
2022/03/06 06:17:34;;;;;;;9.90;6.03;;;2.30;83.20;;;;;;6263041;22;20058;-68
2022/03/06 06:20:00;;;;;;;9.15;5.40;;;2.40;83.30;;;;;;6264761;22;20008;-68
2022/03/06 06:22:28;;;;;;;6.55;5.10;;;2.50;82.20;;;;;;6234506;22;20008;-68
2022/03/06 06:24:54;;;;;;;6.28;5.28;;;2.50;81.80;;;;;;6235140;22;20551;-68
2022/03/06 06:27:20;;;;;;;7.38;5.07;;;2.60;82.70;;;;;;6263568;22;20031;-68
2022/03/06 06:29:46;;;;;;;6.93;5.07;;;2.70;80.70;;;;;;6264164;22;19999;-68
2022/03/06 06:32:13;;;;;;;7.00;5.45;;;2.80;79.90;;;;;;6263290;22;20011;-69
2022/03/06 06:34:39;;;;;;;6.82;4.70;;;2.80;78.80;;;;;;6262702;22;20007;-69
2022/03/06 06:37:04;;;;;;;22.35;5.43;;;2.80;78.50;;;;;;6264106;22;20388;-69
2022/03/06 06:39:30;;;;;;;8.85;4.40;;;2.90;80.30;;;;;;6262724;22;20438;-69
2022/03/06 06:41:56;;;;;;;9.82;4.38;;;2.90;78.60;;;;;;6263474;22;20008;-68
2022/03/06 06:44:21;;;;;;;71.32;64.85;;;2.90;77.80;;;;;;6262638;22;20090;-69
2022/03/06 06:46:47;;;;;;;17.00;12.68;;;2.80;76.30;;;;;;6263232;22;20362;-69
2022/03/06 06:49:13;;;;;;;8.25;5.43;;;2.90;76.40;;;;;;6262891;22;20019;-68
2022/03/06 06:51:38;;;;;;;5.93;4.65;;;2.90;76.80;;;;;;6263671;22;20046;-69
2022/03/06 06:54:05;;;;;;;7.25;4.78;;;2.90;76.80;;;;;;6263718;22;20422;-69
2022/03/06 06:56:31;;;;;;;6.53;4.68;;;2.90;76.60;;;;;;6262957;22;20093;-69
2022/03/06 06:58:57;;;;;;;8.98;4.78;;;2.90;76.30;;;;;;6261609;22;20004;-69
2022/03/06 07:01:23;;;;;;;5.72;4.60;;;3.00;76.80;;;;;;6263128;22;20018;-69
2022/03/06 07:03:49;;;;;;;6.03;3.92;;;3.10;76.90;;;;;;6236479;22;20008;-69
2022/03/06 07:06:15;;;;;;;9.52;6.35;;;3.20;74.30;;;;;;6263150;22;20359;-69
2022/03/06 07:08:41;;;;;;;7.07;4.10;;;3.20;74.90;;;;;;6262548;22;20008;-71
2022/03/06 07:11:07;;;;;;;6.07;4.32;;;3.30;75.10;;;;;;6263335;22;20031;-71
2022/03/06 07:13:33;;;;;;;4.85;3.63;;;3.40;74.80;;;;;;6263337;22;20050;-71
2022/03/06 07:15:59;;;;;;;6.15;4.35;;;3.60;73.70;;;;;;6254752;22;20004;-70
2022/03/06 07:18:25;;;;;;;5.45;4.15;;;3.70;73.40;;;;;;6261788;22;20034;-72
2022/03/06 07:20:50;;;;;;;4.50;3.85;;;3.80;71.00;;;;;;6260475;22;20008;-71
2022/03/06 07:23:16;;;;;;;4.35;3.58;;;3.90;71.20;;;;;;6263441;22;20015;-70
2022/03/06 07:25:42;;;;;;;5.45;4.03;;;4.00;71.00;;;;;;6262187;22;20004;-70
2022/03/06 07:28:08;;;;;;;5.22;3.92;;;4.10;70.40;;;;;;6264441;22;20637;-71
2022/03/06 07:30:33;;;;;;;5.88;3.75;;;4.20;70.30;;;;;;6259559;22;20022;-71
2022/03/06 07:33:02;;;;;;;4.60;3.90;;;4.40;70.00;;;;;;6263695;22;20011;-70
2022/03/06 07:35:28;;;;;;;4.88;3.40;;;4.50;69.60;;;;;;6262647;22;20014;-70
2022/03/06 07:37:54;;;;;;;5.10;3.63;;;4.60;68.80;;;;;;6262019;22;20079;-72
2022/03/06 07:40:21;;;;;;;4.97;4.07;;;4.60;68.60;;;;;;6262423;22;20496;-72
2022/03/06 07:42:47;;;;;;;5.25;3.80;;;4.70;69.10;;;;;;6263344;22;20090;-69
2022/03/06 07:45:13;;;;;;;6.10;4.50;;;4.80;68.20;;;;;;6261609;22;20705;-70
2022/03/06 07:47:39;;;;;;;4.72;3.60;;;4.90;67.40;;;;;;6263460;22;20388;-71
2022/03/06 07:50:07;;;;;;;4.32;3.70;;;4.90;66.40;;;;;;6265439;22;19996;-72
2022/03/06 07:52:34;;;;;;;6.35;4.35;;;4.90;66.70;;;;;;6262810;22;20015;-70
2022/03/06 07:55:00;;;;;;;5.05;3.92;;;4.90;66.90;;;;;;6263569;22;20091;-70
2022/03/06 07:57:25;;;;;;;8.05;4.07;;;4.90;66.10;;;;;;6263761;22;20685;-70
2022/03/06 07:59:51;;;;;;;5.40;4.07;;;4.90;66.20;;;;;;6265873;22;20046;-70
2022/03/06 08:02:17;;;;;;;7.03;4.05;;;5.00;65.70;;;;;;6264007;22;20072;-66
2022/03/06 08:04:42;;;;;;;4.70;3.50;;;5.10;67.40;;;;;;6264754;22;20081;-70
2022/03/06 08:07:08;;;;;;;4.50;3.17;;;5.40;67.30;;;;;;6262875;22;20098;-69
2022/03/06 08:09:34;;;;;;;7.05;3.70;;;5.60;65.60;;;;;;6264272;22;20014;-69
2022/03/06 08:12:00;;;;;;;5.93;3.80;;;5.60;64.90;;;;;;6263379;22;20058;-69
2022/03/06 08:14:27;;;;;;;4.88;3.28;;;5.80;63.20;;;;;;6264344;22;20006;-70
2022/03/06 08:16:53;;;;;;;4.68;3.25;;;5.70;63.20;;;;;;6264435;22;20020;-69
2022/03/06 08:19:18;;;;;;;4.75;3.33;;;5.60;62.80;;;;;;6264379;22;20015;-69
2022/03/06 08:21:44;;;;;;;4.80;3.50;;;5.60;63.80;;;;;;6264011;22;20032;-69
2022/03/06 08:24:10;;;;;;;5.95;3.90;;;5.80;62.40;;;;;;6263848;22;20019;-69
2022/03/06 08:26:35;;;;;;;6.10;3.67;;;5.90;62.90;;;;;;6263150;22;20019;-69
2022/03/06 08:29:01;;;;;;;6.80;3.78;;;6.10;61.70;;;;;;6262849;22;20012;-69
2022/03/06 08:31:27;;;;;;;4.05;3.55;;;6.20;61.40;;;;;;6263807;22;20088;-70
2022/03/06 08:33:53;;;;;;;3.95;2.90;;;6.20;60.90;;;;;;6236307;22;20031;-70
2022/03/06 08:36:19;;;;;;;4.88;3.45;;;6.20;60.80;;;;;;6263477;22;20032;-70
2022/03/06 08:38:45;;;;;;;5.30;3.10;;;6.30;60.40;;;;;;6262709;22;20011;-70
2022/03/06 08:41:11;;;;;;;5.18;3.20;;;6.40;59.80;;;;;;6264895;22;20415;-70
2022/03/06 08:43:37;;;;;;;7.57;3.05;;;6.60;59.20;;;;;;6263565;22;20011;-70
2022/03/06 08:46:03;;;;;;;5.75;3.72;;;6.60;59.00;;;;;;6264908;22;20008;-73
2022/03/06 08:48:30;;;;;;;4.53;3.50;;;6.60;59.50;;;;;;6264067;22;20049;-70
2022/03/06 08:50:56;;;;;;;7.05;4.82;;;6.60;59.60;;;;;;6262566;22;20007;-71
2022/03/06 08:53:21;;;;;;;5.03;3.53;;;6.60;59.20;;;;;;6263814;22;20441;-71
2022/03/06 08:55:47;;;;;;;5.22;3.28;;;6.60;58.90;;;;;;6234759;22;20067;-70
2022/03/06 08:58:13;;;;;;;4.53;3.03;;;6.80;59.40;;;;;;6261918;22;20004;-71
2022/03/06 09:00:39;;;;;;;3.95;2.85;;;7.00;59.10;;;;;;6260870;22;20128;-70
2022/03/06 09:03:04;;;;;;;3.42;2.90;;;7.30;57.40;;;;;;6263673;22;20435;-71
2022/03/06 09:05:30;;;;;;;4.03;2.97;;;7.30;56.20;;;;;;6262370;22;20012;-70
2022/03/06 09:08:00;;;;;;;5.50;4.00;;;7.20;56.10;;;;;;6263733;22;20047;-69
2022/03/06 09:10:26;;;;;;;3.90;3.38;;;7.10;57.10;;;;;;6263333;22;20114;-69
2022/03/06 09:12:51;;;;;;;4.13;3.45;;;7.10;56.50;;;;;;6262718;22;20031;-69
2022/03/06 09:15:17;;;;;;;4.45;3.38;;;7.10;56.70;;;;;;6263697;22;20007;-69
2022/03/06 09:17:43;;;;;;;5.57;3.88;;;7.30;56.50;;;;;;6263487;22;20185;-69
2022/03/06 09:20:09;;;;;;;4.40;3.55;;;7.40;57.10;;;;;;6261514;22;20279;-70
2022/03/06 09:22:35;;;;;;;4.72;3.50;;;7.50;56.40;;;;;;6262465;22;20387;-69
2022/03/06 09:25:01;;;;;;;4.20;3.67;;;7.70;55.70;;;;;;6263540;22;20031;-69
2022/03/06 09:27:27;;;;;;;5.40;4.30;;;7.80;55.10;;;;;;6262158;22;20068;-69
2022/03/06 09:29:53;;;;;;;7.97;3.95;;;8.00;56.30;;;;;;6264266;22;20024;-69
2022/03/06 09:32:18;;;;;;;5.57;4.03;;;8.30;55.50;;;;;;6263961;22;20016;-68
2022/03/06 09:34:44;;;;;;;5.63;4.50;;;8.30;55.60;;;;;;6263386;22;20008;-69
2022/03/06 09:37:10;;;;;;;7.28;5.00;;;8.30;55.70;;;;;;6263426;22;20015;-68
2022/03/06 09:39:35;;;;;;;9.23;6.20;;;8.10;54.40;;;;;;6263176;22;20256;-67
2022/03/06 09:42:01;;;;;;;14.75;8.07;;;8.10;54.20;;;;;;6263561;22;20011;-67
2022/03/06 09:44:27;;;;;;;5.60;4.78;;;7.90;54.30;;;;;;6262987;22;20083;-68
2022/03/06 09:46:57;;;;;;;6.40;5.00;;;7.90;54.80;;;;;;6234817;22;20081;-67
2022/03/06 09:49:24;;;;;;;4.65;3.83;;;7.90;54.60;;;;;;6262070;22;20000;-68
2022/03/06 09:51:50;;;;;;;7.63;5.70;;;8.00;55.20;;;;;;6262744;22;20081;-68
2022/03/06 09:54:17;;;;;;;5.90;4.82;;;8.00;54.20;;;;;;6261071;22;20010;-68
2022/03/06 09:56:43;;;;;;;6.88;4.55;;;8.10;54.70;;;;;;6260770;22;20035;-67
2022/03/06 09:59:09;;;;;;;10.00;3.95;;;8.20;54.10;;;;;;6262638;22;20494;-68
2022/03/06 10:01:35;;;;;;;7.47;5.43;;;8.20;54.30;;;;;;6262428;22;20004;-68
2022/03/06 10:04:31;;;;;;;7.25;5.90;;;8.40;53.80;;;;;;6255130;22;20015;-70
2022/03/06 10:07:03;;;;;;;54.30;27.67;;;8.00;53.30;;;;;;6256821;22;20066;-69
2022/03/06 10:09:29;;;;;;;;;;;7.80;53.10;;;;;;6261016;22;20011;-69
2022/03/06 10:11:55;;;;;;;5.70;4.90;;;7.60;54.10;;;;;;6259124;22;20274;-69
2022/03/06 10:14:41;;;;;;;10.40;6.75;;;7.80;53.90;;;;;;6260800;22;19995;-69
2022/03/06 10:17:18;;;;;;;5.32;4.25;;;7.60;54.50;;;;;;6262592;22;20008;-69
2022/03/06 10:19:50;;;;;;;6.90;5.32;;;7.60;54.30;;;;;;6260258;22;20003;-69
2022/03/06 10:22:16;;;;;;;7.32;3.75;;;7.50;55.50;;;;;;6262184;22;20034;-69
2022/03/06 10:25:13;;;;;;;6.60;4.05;;;7.80;55.50;;;;;;6260868;22;20734;-69
2022/03/06 10:27:49;;;;;;;6.03;4.90;;;8.00;53.50;;;;;;6213864;22;20705;-69
2022/03/06 10:30:31;;;;;;;12.88;3.80;;;8.00;53.90;;;;;;6230054;23;20005;-71
2022/03/06 10:33:07;;;;;;;6.18;4.38;;;8.20;54.10;;;;;;6230647;23;20004;-73
2022/03/06 10:35:37;;;;;;;7.47;4.65;;;8.50;52.20;;;;;;6229685;23;20008;-72
2022/03/06 10:38:25;;;;;;;8.63;4.10;;;8.40;52.40;;;;;;6204371;23;20015;-73
2022/03/06 10:40:51;;;;;;;9.80;7.13;;;8.60;53.50;;;;;;6227680;23;20118;-73
2022/03/06 10:43:29;;;;;;;4.53;3.97;;;8.80;52.00;;;;;;6229801;23;20550;-72
2022/03/06 10:46:09;;;;;;;9.55;7.32;;;8.70;52.10;;;;;;6222731;23;20024;-74
2022/03/06 10:48:35;;;;;;;7.85;5.03;;;8.60;51.60;;;;;;6227004;23;20008;-74
2022/03/06 10:51:02;;;;;;;5.82;4.10;;;8.70;51.80;;;;;;6224677;23;20109;-71
2022/03/06 10:53:29;;;;;;;5.03;4.22;;;8.70;52.00;;;;;;6217148;23;20107;-71
2022/03/06 10:55:57;;;;;;;5.68;4.35;;;8.80;51.40;;;;;;6208506;23;20016;-73
2022/03/06 10:58:22;;;;;;;5.40;4.30;;;9.00;51.20;;;;;;6224001;23;20337;-71
2022/03/06 11:00:48;;;;;;;5.65;4.35;;;9.10;50.30;;;;;;6221815;23;20427;-69
2022/03/06 11:03:14;;;;;;;5.60;4.25;;;9.00;48.90;;;;;;6228176;23;20004;-69
2022/03/06 11:05:45;;;;;;;5.15;4.32;;;8.80;50.00;;;;;;6223474;23;20320;-69
2022/03/06 11:08:15;;;;;;;8.23;5.22;;;8.80;49.00;;;;;;6230700;23;20016;-69
2022/03/06 11:10:43;;;;;;;5.88;4.93;;;8.70;49.20;;;;;;6230093;23;20000;-68
2022/03/06 11:13:13;;;;;;;6.00;4.65;;;8.80;50.30;;;;;;6227903;23;20533;-69
2022/03/06 11:15:40;;;;;;;8.38;5.30;;;9.00;50.10;;;;;;6228705;23;20066;-68
2022/03/06 11:18:06;;;;;;;9.75;5.78;;;9.30;49.30;;;;;;6228836;23;20465;-68
2022/03/06 11:20:33;;;;;;;5.95;4.05;;;9.20;49.20;;;;;;6225266;23;20004;-68
2022/03/06 11:23:25;;;;;;;6.43;4.63;;;9.40;49.60;;;;;;6227673;23;20012;-68
2022/03/06 11:26:22;;;;;;;6.53;4.28;;;9.40;48.50;;;;;;6214473;23;20083;-67
2022/03/06 11:29:06;;;;;;;8.90;6.78;;;9.50;48.60;;;;;;6231608;23;20442;-68
2022/03/06 11:31:52;;;;;;;31.58;13.95;;;9.60;47.90;;;;;;6232865;23;20004;-67
2022/03/06 11:34:22;;;;;;;6.13;4.80;;;9.60;46.30;;;;;;6225703;23;20045;-68
2022/03/06 11:36:49;;;;;;;7.75;4.53;;;9.60;47.70;;;;;;6205372;23;20090;-67
2022/03/06 11:39:34;;;;;;;6.35;4.80;;;9.60;46.00;;;;;;6224718;23;20008;-67
2022/03/06 11:42:05;;;;;;;9.38;4.60;;;9.40;46.70;;;;;;6232314;23;20612;-67
2022/03/06 11:44:47;;;;;;;57.33;7.53;;;9.20;47.60;;;;;;6230092;23;20812;-67
2022/03/06 11:47:21;;;;;;;43.92;5.82;;;9.50;48.00;;;;;;6232097;23;20662;-67
2022/03/06 11:49:55;;;;;;;6.18;4.07;;;9.60;48.20;;;;;;6230876;23;20008;-67
2022/03/06 11:52:34;;;;;;;5.05;4.07;;;9.70;46.00;;;;;;6229852;23;20018;-68
2022/03/06 11:55:01;;;;;;;5.40;4.45;;;9.50;46.70;;;;;;6228219;23;20509;-68
2022/03/06 11:57:47;;;;;;;78.90;52.10;;;9.50;47.50;;;;;;6226038;23;20099;-68
2022/03/06 12:00:17;;;;;;;7.55;6.70;;;9.80;47.40;;;;;;6226303;23;20371;-67
2022/03/06 12:02:54;;;;;;;5.35;4.20;;;9.90;47.80;;;;;;6230785;23;20008;-67
2022/03/06 12:05:22;;;;;;;5.85;4.88;;;10.00;46.10;;;;;;6224993;23;20125;-67
2022/03/06 12:07:49;;;;;;;7.75;4.95;;;9.70;45.70;;;;;;6229646;23;20012;-66
2022/03/06 12:10:17;;;;;;;9.48;7.70;;;9.70;46.20;;;;;;6223335;23;20351;-66
2022/03/06 12:12:55;;;;;;;6.20;4.85;;;9.50;47.60;;;;;;6228165;23;20477;-68
2022/03/06 12:15:28;;;;;;;6.38;4.63;;;9.60;46.00;;;;;;6227271;23;20418;-67
2022/03/06 12:18:03;;;;;;;5.50;3.80;;;9.50;47.20;;;;;;6230939;23;20004;-67
2022/03/06 12:20:39;;;;;;;4.47;3.75;;;9.70;47.50;;;;;;6228702;23;20015;-67
2022/03/06 12:23:06;;;;;;;6.15;4.78;;;9.90;47.20;;;;;;6230863;23;20828;-67
2022/03/06 12:25:34;;;;;;;6.40;5.60;;;9.90;47.40;;;;;;6227116;23;20004;-70
2022/03/06 12:28:03;;;;;;;8.48;7.47;;;10.10;46.50;;;;;;6230211;23;20064;-69
2022/03/06 12:30:30;;;;;;;5.07;4.38;;;10.30;45.40;;;;;;6230679;23;20012;-69
2022/03/06 12:32:57;;;;;;;6.72;4.45;;;10.20;45.50;;;;;;6228102;23;20023;-68
2022/03/06 12:35:22;;;;;;;5.32;4.15;;;10.30;45.00;;;;;;6224912;23;20079;-69
2022/03/06 12:37:59;;;;;;;6.93;5.07;;;10.30;45.50;;;;;;6232376;23;20040;-69
2022/03/06 12:40:34;;;;;;;9.80;4.63;;;10.30;44.80;;;;;;6198453;22;20031;-74
2022/03/06 12:43:02;;;;;;;6.28;4.75;;;10.10;44.50;;;;;;6235669;22;20099;-74
2022/03/06 12:45:28;;;;;;;5.82;4.95;;;9.80;45.30;;;;;;6234478;23;20079;-71
2022/03/06 12:47:54;;;;;;;10.10;6.07;;;9.80;46.60;;;;;;6235427;22;20937;-72
2022/03/06 12:50:21;;;;;;;6.38;4.32;;;10.00;45.30;;;;;;6239198;22;20004;-74
2022/03/06 12:52:48;;;;;;;6.22;4.50;;;9.80;45.90;;;;;;6232462;22;20226;-71
2022/03/06 12:55:17;;;;;;;6.65;4.45;;;9.70;45.90;;;;;;6229546;22;20083;-69